Time;durP1;ratioP1;P1;durP2;ratioP2;P2;SDS_P1;SDS_P2;PMS_P1;PMS_P2;Temp;Humidity;BMP_temperature;BMP_pressure;BME280_temperature;BME280_humidity;BME280_pressure;Samples;Min_cycle;Max_cycle;Signal;HPM_P1;HPM_P2
2022/04/07 00:01:03;;;;;;;7.63;5.22;;;;;;;-145.70;100.00;64261.84;5017452;28;20049;-84
2022/04/07 00:03:29;;;;;;;8.65;6.07;;;;;;;-145.70;100.00;64261.84;5009735;28;20455;-84
2022/04/07 00:05:54;;;;;;;8.73;5.28;;;;;;;-145.70;100.00;64261.84;5006628;28;20073;-84
2022/04/07 00:08:19;;;;;;;7.85;5.57;;;;;;;-145.70;100.00;64261.84;4989898;28;20038;-84
2022/04/07 00:10:46;;;;;;;9.35;4.90;;;;;;;-145.70;100.00;64261.84;5020213;28;20038;-84
2022/04/07 00:13:12;;;;;;;7.35;5.25;;;;;;;-145.70;100.00;64261.84;5019207;28;20037;-84
2022/04/07 00:15:37;;;;;;;6.00;4.93;;;;;;;-145.70;100.00;64261.84;5006222;28;20121;-84
2022/04/07 00:18:04;;;;;;;6.50;5.38;;;;;;;-145.70;100.00;64261.84;4999543;28;20057;-84
2022/04/07 00:20:29;;;;;;;5.95;4.45;;;;;;;-145.70;100.00;64261.84;5006356;28;20485;-84
2022/04/07 00:22:57;;;;;;;7.93;6.03;;;;;;;-145.70;100.00;64261.84;5006248;28;20049;-84
2022/04/07 00:25:23;;;;;;;8.48;5.43;;;;;;;-145.70;100.00;64261.84;5014376;28;20656;-84
2022/04/07 00:27:48;;;;;;;7.75;4.90;;;;;;;-145.70;100.00;64261.84;5022509;28;20052;-84
2022/04/07 00:30:17;;;;;;;9.65;5.40;;;;;;;-145.70;100.00;64261.84;5020874;28;20033;-84
2022/04/07 00:32:43;;;;;;;8.40;5.13;;;;;;;-145.70;100.00;64261.84;5022977;28;20053;-84
2022/04/07 00:35:09;;;;;;;6.00;5.15;;;;;;;-145.70;100.00;64261.84;5013229;28;20407;-84
2022/04/07 00:37:35;;;;;;;6.05;4.95;;;;;;;-145.70;100.00;64261.84;5015027;28;20164;-84
2022/04/07 00:40:00;;;;;;;6.38;5.20;;;;;;;-145.70;100.00;64261.84;5022379;28;20060;-84
2022/04/07 00:42:26;;;;;;;7.82;5.75;;;;;;;-145.70;100.00;64261.84;5015203;28;20046;-84
2022/04/07 00:44:52;;;;;;;7.03;4.43;;;;;;;-145.70;100.00;64261.84;5011363;28;20108;-84
2022/04/07 00:47:19;;;;;;;7.85;3.72;;;;;;;-145.70;100.00;64261.84;5015779;28;20064;-84
2022/04/07 00:49:45;;;;;;;6.85;3.97;;;;;;;-145.70;100.00;64261.84;5013971;28;20041;-84
2022/04/07 00:52:12;;;;;;;5.60;4.25;;;;;;;-145.70;100.00;64261.84;5022600;28;20053;-84
2022/04/07 00:54:38;;;;;;;6.50;4.32;;;;;;;-145.70;100.00;64261.84;5018172;28;20069;-84
2022/04/07 00:57:06;;;;;;;6.03;4.00;;;;;;;-145.70;100.00;64261.84;5015587;28;20069;-83
2022/04/07 00:59:34;;;;;;;6.20;4.05;;;;;;;-145.70;100.00;64261.84;5018469;28;20042;-83
2022/04/07 01:02:00;;;;;;;7.00;4.28;;;;;;;-145.70;100.00;64261.84;5025738;28;20125;-83
2022/04/07 01:04:26;;;;;;;6.60;4.05;;;;;;;-145.70;100.00;64261.84;5014638;28;20108;-83
2022/04/07 01:06:52;;;;;;;5.75;3.85;;;;;;;-145.70;100.00;64261.84;5015348;28;20499;-84
2022/04/07 01:09:20;;;;;;;6.43;3.75;;;;;;;-145.70;100.00;64261.84;5013269;28;20108;-84
2022/04/07 01:11:46;;;;;;;5.35;3.67;;;;;;;-145.70;100.00;64261.84;5002362;28;20046;-84
2022/04/07 01:14:11;;;;;;;7.32;3.88;;;;;;;-145.70;100.00;64261.84;5012687;28;20041;-83
2022/04/07 01:16:37;;;;;;;5.95;4.13;;;;;;;-145.70;100.00;64261.84;5021037;28;20076;-83
2022/04/07 01:19:03;;;;;;;6.18;3.30;;;;;;;-145.70;100.00;64261.84;5019838;28;20416;-84
2022/04/07 01:21:32;;;;;;;4.20;2.55;;;;;;;-145.70;100.00;64261.84;5014697;28;20115;-84
2022/04/07 01:24:03;;;;;;;8.95;3.35;;;;;;;-145.70;100.00;64261.84;5022549;28;20046;-83
2022/04/07 01:26:37;;;;;;;7.85;3.08;;;;;;;-145.70;100.00;64261.84;5023022;28;20052;-83
2022/04/07 01:29:03;;;;;;;5.15;2.60;;;;;;;-145.70;100.00;64261.84;5008027;28;20050;-83
2022/04/07 01:31:29;;;;;;;6.45;2.65;;;;;;;-145.70;100.00;64261.84;5000163;28;20050;-84
2022/04/07 01:33:57;;;;;;;4.60;2.40;;;;;;;-145.70;100.00;64261.84;5024410;28;20099;-83
2022/04/07 01:36:23;;;;;;;5.80;2.70;;;;;;;-145.70;100.00;64261.84;5027510;28;20095;-83
2022/04/07 01:38:49;;;;;;;7.88;2.70;;;;;;;-145.70;100.00;64261.84;5019263;28;20046;-83
2022/04/07 01:41:15;;;;;;;8.45;2.88;;;;;;;-145.70;100.00;64261.84;5017918;28;20104;-83
2022/04/07 01:43:41;;;;;;;5.18;3.10;;;;;;;-145.70;100.00;64261.84;5026396;28;20037;-83
2022/04/07 01:46:12;;;;;;;6.82;3.03;;;;;;;-145.70;100.00;64261.84;5018744;28;20045;-83
2022/04/07 01:48:38;;;;;;;6.55;2.80;;;;;;;-145.70;100.00;64261.84;5011798;28;20064;-84
2022/04/07 01:51:03;;;;;;;5.88;2.42;;;;;;;-145.70;100.00;64261.84;5003900;28;20065;-84
2022/04/07 01:53:29;;;;;;;9.18;3.20;;;;;;;-145.70;100.00;64261.84;5018445;28;20053;-83
2022/04/07 01:55:54;;;;;;;7.53;3.40;;;;;;;-145.70;100.00;64261.84;5020966;28;20080;-83
2022/04/07 01:58:20;;;;;;;6.93;3.05;;;;;;;-145.70;100.00;64261.84;5020643;28;20049;-84
2022/04/07 02:00:46;;;;;;;7.82;3.67;;;;;;;-145.70;100.00;64261.84;5015939;28;20713;-84
2022/04/07 02:03:11;;;;;;;6.28;3.08;;;;;;;-145.70;100.00;64261.84;5018201;28;20164;-84
2022/04/07 02:05:36;;;;;;;6.80;3.42;;;;;;;-145.70;100.00;64261.84;5019422;28;20061;-84
2022/04/07 02:08:02;;;;;;;7.88;4.13;;;;;;;-145.70;100.00;64261.84;5021929;28;20088;-84
2022/04/07 02:10:30;;;;;;;6.75;3.45;;;;;;;-145.70;100.00;64261.84;4995293;28;20078;-84
2022/04/07 02:12:55;;;;;;;6.50;4.07;;;;;;;-145.70;100.00;64261.84;4998956;28;20050;-84
2022/04/07 02:15:21;;;;;;;10.65;3.42;;;;;;;-145.70;100.00;64261.84;5002791;28;20406;-84
2022/04/07 02:17:46;;;;;;;9.63;4.18;;;;;;;-145.70;100.00;64261.84;5002748;28;20092;-84
2022/04/07 02:20:12;;;;;;;5.85;3.58;;;;;;;-145.70;100.00;64261.84;5024562;28;20516;-84
2022/04/07 02:22:37;;;;;;;8.13;4.25;;;;;;;-145.70;100.00;64261.84;5015367;28;20460;-84
2022/04/07 02:25:04;;;;;;;5.53;3.90;;;;;;;-145.70;100.00;64261.84;5017032;28;20041;-84
2022/04/07 02:27:37;;;;;;;6.35;3.40;;;;;;;-145.70;100.00;64261.84;5018257;28;20061;-83
2022/04/07 02:30:05;;;;;;;8.75;3.65;;;;;;;-145.70;100.00;64261.84;5023329;28;20045;-84
2022/04/07 02:32:30;;;;;;;9.55;3.33;;;;;;;-145.70;100.00;64261.84;5012552;28;20100;-84
2022/04/07 02:34:56;;;;;;;9.40;3.72;;;;;;;-145.70;100.00;64261.84;5016404;28;20519;-83
2022/04/07 02:37:22;;;;;;;7.45;3.28;;;;;;;-145.70;100.00;64261.84;5019795;28;20117;-83
2022/04/07 02:39:47;;;;;;;6.10;3.25;;;;;;;-145.70;100.00;64261.84;5015633;28;22646;-84
2022/04/07 02:42:12;;;;;;;8.93;3.78;;;;;;;-145.70;100.00;64261.84;5017538;28;20037;-83
2022/04/07 02:44:38;;;;;;;6.47;3.20;;;;;;;-145.70;100.00;64261.84;5019329;28;20456;-84
2022/04/07 02:47:03;;;;;;;8.52;3.20;;;;;;;-145.70;100.00;64261.84;5016592;28;20064;-84
2022/04/07 02:49:29;;;;;;;9.63;3.78;;;;;;;-145.70;100.00;64261.84;5022236;28;20416;-83
2022/04/07 02:51:54;;;;;;;9.80;3.47;;;;;;;-145.70;100.00;64261.84;5018959;28;20055;-83
2022/04/07 02:54:19;;;;;;;7.57;3.10;;;;;;;-145.70;100.00;64261.84;5016757;28;20076;-83
2022/04/07 02:56:46;;;;;;;8.93;3.05;;;;;;;-145.70;100.00;64261.84;5021663;28;20037;-83
2022/04/07 02:59:11;;;;;;;6.35;3.00;;;;;;;-145.70;100.00;64261.84;5036822;28;20045;-82
2022/04/07 03:01:37;;;;;;;8.30;2.72;;;;;;;-145.70;100.00;64261.84;5026366;28;20095;-82
2022/04/07 03:04:02;;;;;;;7.30;3.35;;;;;;;-145.70;100.00;64261.84;5027368;28;20107;-83
2022/04/07 03:06:28;;;;;;;8.00;2.90;;;;;;;-145.70;100.00;64261.84;5024666;28;20042;-83
2022/04/07 03:08:54;;;;;;;9.43;3.10;;;;;;;-145.70;100.00;64261.84;5018374;28;20045;-83
2022/04/07 03:11:20;;;;;;;13.30;4.03;;;;;;;-145.70;100.00;64261.84;5003186;28;20034;-83
2022/04/07 03:13:45;;;;;;;6.65;3.13;;;;;;;-145.70;100.00;64261.84;5014796;28;20121;-83
2022/04/07 03:16:10;;;;;;;6.10;2.80;;;;;;;-145.70;100.00;64261.84;5015031;28;20061;-83
2022/04/07 03:18:36;;;;;;;10.25;4.10;;;;;;;-145.70;100.00;64261.84;5006676;28;20491;-83
2022/04/07 03:21:02;;;;;;;8.20;3.63;;;;;;;-145.70;100.00;64261.84;5022612;28;20045;-83
2022/04/07 03:23:27;;;;;;;8.88;3.25;;;;;;;-145.70;100.00;64261.84;5007548;28;20045;-83
2022/04/07 03:25:53;;;;;;;5.05;2.40;;;;;;;-145.70;100.00;64261.84;5006703;28;20041;-82
2022/04/07 03:28:19;;;;;;;7.68;2.75;;;;;;;-145.70;100.00;64261.84;5015691;28;20056;-83
2022/04/07 03:30:44;;;;;;;7.55;2.63;;;;;;;-145.70;100.00;64261.84;5012318;28;20046;-83
2022/04/07 03:33:09;;;;;;;5.22;2.03;;;;;;;-145.70;100.00;64261.84;5021531;28;20096;-83
2022/04/07 03:35:38;;;;;;;4.45;2.17;;;;;;;-145.70;100.00;64261.84;5007080;28;20046;-83
2022/04/07 03:38:06;;;;;;;7.57;2.25;;;;;;;-145.70;100.00;64261.84;4995572;28;20042;-83
2022/04/07 03:40:34;;;;;;;7.65;2.60;;;;;;;-145.70;100.00;64261.84;4999783;28;20835;-83
2022/04/07 03:43:00;;;;;;;8.00;2.45;;;;;;;-145.70;100.00;64261.84;5019352;28;20045;-83
2022/04/07 03:45:25;;;;;;;8.85;2.25;;;;;;;-145.70;100.00;64261.84;5016657;28;20080;-83
2022/04/07 03:47:51;;;;;;;9.15;2.75;;;;;;;-145.70;100.00;64261.84;5019483;28;20041;-83
2022/04/07 03:50:16;;;;;;;8.25;2.60;;;;;;;-145.70;100.00;64261.84;5018855;28;20045;-83
2022/04/07 03:52:42;;;;;;;5.20;2.38;;;;;;;-145.70;100.00;64261.84;5013453;28;20092;-82
2022/04/07 03:55:08;;;;;;;6.88;2.75;;;;;;;-145.70;100.00;64261.84;5011984;28;20120;-83
2022/04/07 03:57:33;;;;;;;7.10;3.38;;;;;;;-145.70;100.00;64261.84;5027651;28;20743;-83
2022/04/07 03:59:59;;;;;;;9.55;2.42;;;;;;;-145.70;100.00;64261.84;5023188;28;20049;-82
2022/04/07 04:02:24;;;;;;;10.07;2.97;;;;;;;-145.70;100.00;64261.84;5022080;28;20409;-82
2022/04/07 04:04:49;;;;;;;10.52;2.92;;;;;;;-145.70;100.00;64261.84;5026055;28;20037;-83
2022/04/07 04:07:15;;;;;;;8.27;2.70;;;;;;;-145.70;100.00;64261.84;5024100;28;20038;-82
2022/04/07 04:09:40;;;;;;;8.02;2.58;;;;;;;-145.70;100.00;64261.84;5015800;28;20033;-83
2022/04/07 04:12:06;;;;;;;7.45;2.50;;;;;;;-145.70;100.00;64261.84;5019534;28;20038;-83
2022/04/07 04:14:32;;;;;;;8.25;2.70;;;;;;;-145.70;100.00;64261.84;5020513;28;20045;-83
2022/04/07 04:16:57;;;;;;;6.10;2.47;;;;;;;-145.70;100.00;64261.84;5019705;28;20065;-84
2022/04/07 04:19:23;;;;;;;6.38;2.30;;;;;;;-145.70;100.00;64261.84;5015852;28;20057;-84
2022/04/07 04:21:49;;;;;;;9.45;2.63;;;;;;;-145.70;100.00;64261.84;5012791;28;20039;-83
2022/04/07 04:24:14;;;;;;;8.10;2.63;;;;;;;-145.70;100.00;64261.84;5019585;28;20072;-84
2022/04/07 04:26:40;;;;;;;7.40;3.00;;;;;;;-145.70;100.00;64261.84;5012207;28;20774;-84
2022/04/07 04:29:05;;;;;;;6.75;2.60;;;;;;;-145.70;100.00;64261.84;5025087;28;20038;-84
2022/04/07 04:31:30;;;;;;;7.68;2.35;;;;;;;-145.70;100.00;64261.84;5019624;28;20137;-84
2022/04/07 04:33:56;;;;;;;6.32;2.25;;;;;;;-145.70;100.00;64261.84;5018570;28;20107;-84
2022/04/07 04:36:22;;;;;;;9.80;2.80;;;;;;;-145.70;100.00;64261.84;5019543;28;20042;-84
2022/04/07 04:38:48;;;;;;;6.90;3.00;;;;;;;-145.70;100.00;64261.84;4997509;28;20052;-84
2022/04/07 04:41:14;;;;;;;7.20;2.63;;;;;;;-145.70;100.00;64261.84;5008544;28;20046;-85
2022/04/07 04:43:39;;;;;;;10.43;2.55;;;;;;;-145.70;100.00;64261.84;5015260;28;20048;-84
2022/04/07 04:46:06;;;;;;;10.40;2.97;;;;;;;-145.70;100.00;64261.84;5026227;28;20412;-84
2022/04/07 04:48:42;;;;;;;7.20;2.28;;;;;;;-145.70;100.00;64261.84;5024823;28;20490;-84
2022/04/07 04:51:08;;;;;;;8.15;3.05;;;;;;;-145.70;100.00;64261.84;5024136;28;20045;-84
2022/04/07 04:53:33;;;;;;;9.35;2.97;;;;;;;-145.70;100.00;64261.84;5025766;28;20095;-84
2022/04/07 04:55:58;;;;;;;9.82;2.65;;;;;;;-145.70;100.00;64261.84;5035677;28;20053;-84
2022/04/07 04:58:24;;;;;;;9.93;2.78;;;;;;;-145.70;100.00;64261.84;5023943;28;20041;-84
2022/04/07 05:00:49;;;;;;;6.10;2.53;;;;;;;-145.70;100.00;64261.84;5019305;28;20117;-84
2022/04/07 05:03:15;;;;;;;8.35;3.30;;;;;;;-145.70;100.00;64261.84;5017246;28;20084;-84
2022/04/07 05:05:41;;;;;;;6.68;2.65;;;;;;;-145.70;100.00;64261.84;5018108;28;20120;-84
2022/04/07 05:08:07;;;;;;;11.18;2.58;;;;;;;-145.70;100.00;64261.84;5019312;28;20124;-84
2022/04/07 05:10:32;;;;;;;9.52;2.85;;;;;;;-145.70;100.00;64261.84;5020064;28;20041;-84
2022/04/07 05:12:58;;;;;;;9.15;2.95;;;;;;;-145.70;100.00;64261.84;5023872;28;20091;-84
2022/04/07 05:15:24;;;;;;;10.30;2.67;;;;;;;-145.70;100.00;64261.84;5015461;28;20052;-84
2022/04/07 05:17:53;;;;;;;6.03;1.83;;;;;;;-145.70;100.00;64261.84;5022625;28;20038;-84
2022/04/07 05:20:19;;;;;;;9.07;2.20;;;;;;;-145.70;100.00;64261.84;5017704;28;20073;-84
2022/04/07 05:22:45;;;;;;;7.15;2.38;;;;;;;-145.70;100.00;64261.84;5014508;28;20037;-84
2022/04/07 05:25:11;;;;;;;6.03;2.08;;;;;;;-145.70;100.00;64261.84;5019527;28;20069;-84
2022/04/07 05:27:37;;;;;;;5.38;1.70;;;;;;;-145.70;100.00;64261.84;5018327;28;20038;-84
2022/04/07 05:30:15;;;;;;;8.80;2.22;;;;;;;-145.70;100.00;64261.84;5015209;28;20041;-84
2022/04/07 05:32:44;;;;;;;6.40;1.80;;;;;;;-145.70;100.00;64261.84;5014550;28;20033;-84
2022/04/07 05:35:10;;;;;;;5.78;1.95;;;;;;;-145.70;100.00;64261.84;4999629;28;20490;-84
2022/04/07 05:37:36;;;;;;;5.80;1.77;;;;;;;-145.70;100.00;64261.84;5000409;28;20049;-84
2022/04/07 05:40:02;;;;;;;5.95;2.15;;;;;;;-145.70;100.00;64261.84;5024695;28;20037;-84
2022/04/07 05:42:28;;;;;;;5.72;2.08;;;;;;;-145.70;100.00;64261.84;5020526;28;20124;-84
2022/04/07 05:44:53;;;;;;;8.40;3.03;;;;;;;-145.70;100.00;64261.84;5022888;28;20561;-84
2022/04/07 05:47:18;;;;;;;3.92;1.80;;;;;;;-145.70;100.00;64261.84;5037824;28;20045;-84
2022/04/07 05:49:44;;;;;;;6.35;1.80;;;;;;;-145.70;100.00;64261.84;5009238;28;20515;-84
2022/04/07 05:52:11;;;;;;;6.00;2.00;;;;;;;-145.70;100.00;64261.84;5020265;28;20101;-85
2022/04/07 05:54:36;;;;;;;7.43;1.58;;;;;;;-145.70;100.00;64261.84;5050470;22;20120;-86
2022/04/07 05:57:02;;;;;;;3.78;1.65;;;;;;;-145.70;100.00;64261.84;5017799;28;20482;-86
2022/04/07 05:59:27;;;;;;;2.90;1.40;;;;;;;-145.70;100.00;64261.84;5024021;28;20051;-86
2022/04/07 06:01:53;;;;;;;3.03;1.30;;;;;;;-145.70;100.00;64261.84;5025666;28;20372;-86
2022/04/07 06:04:18;;;;;;;3.22;1.33;;;;;;;-145.70;100.00;64261.84;5022819;28;20040;-86
2022/04/07 06:06:44;;;;;;;4.88;1.42;;;;;;;-145.70;100.00;64261.84;5024644;28;20052;-86
2022/04/07 06:09:09;;;;;;;3.95;1.63;;;;;;;-145.70;100.00;64261.84;5017980;28;20044;-86
2022/04/07 06:11:35;;;;;;;3.25;1.30;;;;;;;-145.70;100.00;64261.84;5022508;28;20045;-85
2022/04/07 06:14:00;;;;;;;4.25;1.88;;;;;;;-145.70;100.00;64261.84;5024647;28;20116;-86
2022/04/07 06:16:26;;;;;;;6.28;1.35;;;;;;;-145.70;100.00;64261.84;5021601;28;20137;-86
2022/04/07 06:18:57;;;;;;;3.75;1.92;;;;;;;-145.70;100.00;64261.84;5024858;28;20048;-86
2022/04/07 06:21:29;;;;;;;3.50;1.98;;;;;;;-145.70;100.00;64261.84;5007095;28;20118;-86
2022/04/07 06:23:55;;;;;;;4.47;1.90;;;;;;;-145.70;100.00;64261.84;5013715;28;20052;-86
2022/04/07 06:26:20;;;;;;;4.72;1.73;;;;;;;-145.70;100.00;64261.84;5006008;28;20042;-86
2022/04/07 06:28:46;;;;;;;3.25;2.08;;;;;;;-145.70;100.00;64261.84;4993997;28;20357;-86
2022/04/07 06:31:11;;;;;;;3.97;1.98;;;;;;;-145.70;100.00;64261.84;5008020;28;20053;-86
2022/04/07 06:33:36;;;;;;;6.47;2.90;;;;;;;-145.70;100.00;64261.84;4988210;28;20549;-86
2022/04/07 06:36:03;;;;;;;6.05;2.72;;;;;;;-145.70;100.00;64261.84;4997319;28;20097;-86
2022/04/07 06:38:30;;;;;;;5.32;2.38;;;;;;;-145.70;100.00;64261.84;4996214;28;20049;-86
2022/04/07 06:40:56;;;;;;;4.30;2.67;;;;;;;-145.70;100.00;64261.84;5012094;28;20053;-86
2022/04/07 06:43:22;;;;;;;6.63;2.53;;;;;;;-145.70;100.00;64261.84;5003018;28;20060;-86
2022/04/07 06:45:47;;;;;;;3.40;2.22;;;;;;;-145.70;100.00;64261.84;4965811;28;20050;-86
2022/04/07 06:48:13;;;;;;;5.30;2.90;;;;;;;-145.70;100.00;64261.84;4970287;28;20047;-86
2022/04/07 06:50:38;;;;;;;4.45;2.80;;;;;;;-145.70;100.00;64261.84;4966461;28;20047;-86
2022/04/07 06:53:04;;;;;;;4.55;2.55;;;;;;;-145.70;100.00;64261.84;4987554;28;20085;-86
2022/04/07 06:55:29;;;;;;;5.05;2.28;;;;;;;-145.70;100.00;64261.84;5004831;28;20050;-86
2022/04/07 06:57:59;;;;;;;4.75;2.53;;;;;;;-145.70;100.00;64261.84;5008530;28;20048;-86
2022/04/07 07:00:33;;;;;;;6.13;2.00;;;;;;;-145.70;100.00;64261.84;5008925;28;20048;-86
2022/04/07 07:03:00;;;;;;;4.50;1.95;;;;;;;-145.70;100.00;64261.84;5006680;28;20052;-86
2022/04/07 07:05:28;;;;;;;4.93;2.58;;;;;;;-145.70;100.00;64261.84;5008297;28;20514;-86
2022/04/07 07:07:53;;;;;;;7.10;1.95;;;;;;;-145.70;100.00;64261.84;5008185;28;20070;-86
2022/04/07 07:10:23;;;;;;;3.53;2.00;;;;;;;-145.70;100.00;64261.84;5008861;28;22297;-86
2022/04/07 07:12:49;;;;;;;5.53;2.15;;;;;;;-145.70;100.00;64261.84;5007855;28;20052;-86
2022/04/07 07:15:16;;;;;;;6.13;2.40;;;;;;;-145.70;100.00;64261.84;5009953;28;20053;-86
2022/04/07 07:17:42;;;;;;;4.15;1.65;;;;;;;-145.70;100.00;64261.84;5010445;28;20045;-86
2022/04/07 07:20:10;;;;;;;6.03;2.70;;;;;;;-145.70;100.00;64261.84;5009079;28;20049;-85
2022/04/07 07:22:36;;;;;;;5.07;2.33;;;;;;;-145.70;100.00;64261.84;5008278;28;20052;-86
2022/04/07 07:25:02;;;;;;;4.32;2.10;;;;;;;-145.70;100.00;64261.84;5011233;28;20640;-86
2022/04/07 07:27:28;;;;;;;5.50;2.30;;;;;;;-145.70;100.00;64261.84;5009831;28;20058;-86
2022/04/07 07:29:53;;;;;;;6.07;2.60;;;;;;;-145.70;100.00;64261.84;5008089;28;20448;-86
2022/04/07 07:32:21;;;;;;;7.22;2.50;;;;;;;-145.70;100.00;64261.84;5008784;28;20056;-86
2022/04/07 07:34:47;;;;;;;3.15;1.88;;;;;;;-145.70;100.00;64261.84;5006802;28;20037;-87
2022/04/07 07:37:17;;;;;;;6.68;1.92;;;;;;;-145.70;100.00;64261.84;5004975;28;20046;-86
2022/04/07 07:39:42;;;;;;;6.78;2.53;;;;;;;-145.70;100.00;64261.84;5010950;28;20038;-86
2022/04/07 07:42:08;;;;;;;5.63;2.13;;;;;;;-145.70;100.00;64261.84;5006935;28;20389;-87
2022/04/07 07:44:33;;;;;;;5.75;2.65;;;;;;;-145.70;100.00;64261.84;5007664;28;20065;-87
2022/04/07 07:46:58;;;;;;;4.65;2.22;;;;;;;-145.70;100.00;64261.84;5010118;28;20038;-87
2022/04/07 07:49:24;;;;;;;3.88;1.75;;;;;;;-145.70;100.00;64261.84;5009574;28;20472;-87
2022/04/07 07:51:51;;;;;;;4.63;1.95;;;;;;;-145.70;100.00;64261.84;5009643;28;20570;-87
2022/04/07 07:54:17;;;;;;;4.00;1.90;;;;;;;-145.70;100.00;64261.84;5008248;28;20042;-86
2022/04/07 07:56:42;;;;;;;5.43;2.22;;;;;;;-145.70;100.00;64261.84;5011071;28;20049;-87
2022/04/07 07:59:07;;;;;;;3.45;1.80;;;;;;;-145.70;100.00;64261.84;5011672;28;20045;-88
2022/04/07 08:01:33;;;;;;;9.20;1.30;;;;;;;-145.70;100.00;64261.84;5012327;28;20648;-87
2022/04/07 08:03:58;;;;;;;5.35;2.10;;;;;;;-145.70;100.00;64261.84;5007575;28;20065;-88
2022/04/07 08:06:23;;;;;;;1.63;0.60;;;;;;;-145.70;100.00;64261.84;5014619;28;20634;-89
2022/04/07 08:08:49;;;;;;;3.15;0.60;;;;;;;-145.70;100.00;64261.84;5002455;28;20109;-89
2022/04/07 08:11:14;;;;;;;1.17;0.60;;;;;;;-145.70;100.00;64261.84;4993465;28;20338;-88
2022/04/07 08:13:39;;;;;;;2.53;0.90;;;;;;;-145.70;100.00;64261.84;4992272;28;20693;-88
2022/04/07 08:16:05;;;;;;;1.60;0.60;;;;;;;-145.70;100.00;64261.84;4992798;28;20068;-88
2022/04/07 08:18:31;;;;;;;2.58;0.90;;;;;;;-145.70;100.00;64261.84;4993124;28;20065;-88
2022/04/07 08:20:56;;;;;;;6.18;1.67;;;;;;;-145.70;100.00;64261.84;4992470;28;20092;-88
2022/04/07 08:23:22;;;;;;;3.28;0.98;;;;;;;-145.70;100.00;64261.84;4992706;28;20076;-88
2022/04/07 08:25:47;;;;;;;3.67;1.27;;;;;;;-145.70;100.00;64261.84;4990480;28;20046;-89
2022/04/07 08:28:12;;;;;;;6.43;1.60;;;;;;;-145.70;100.00;64261.84;4995547;28;20062;-87
2022/04/07 08:30:38;;;;;;;3.90;1.17;;;;;;;-145.70;100.00;64261.84;4992821;28;20034;-88
2022/04/07 08:33:04;;;;;;;4.72;1.55;;;;;;;-145.70;100.00;64261.84;4992736;28;20143;-87
2022/04/07 08:35:29;;;;;;;3.47;1.13;;;;;;;-145.70;100.00;64261.84;4992900;28;20061;-88
2022/04/07 08:37:55;;;;;;;2.40;1.08;;;;;;;-145.70;100.00;64261.84;4993082;28;20322;-89
2022/04/07 08:40:22;;;;;;;3.35;1.30;;;;;;;-145.70;100.00;64261.84;4995648;28;20180;-88
2022/04/07 08:42:47;;;;;;;5.10;1.60;;;;;;;-145.70;100.00;64261.84;4990591;28;20057;-89
2022/04/07 08:45:13;;;;;;;6.05;1.73;;;;;;;-145.70;100.00;64261.84;4990530;28;20046;-88
2022/04/07 08:47:40;;;;;;;4.95;1.50;;;;;;;-145.70;100.00;64261.84;5021934;28;20183;-88
2022/04/07 08:50:07;;;;;;;4.78;1.20;;;;;;;-145.70;100.00;64261.84;4991577;28;20107;-86
2022/04/07 08:52:33;;;;;;;4.18;1.70;;;;;;;-145.70;100.00;64261.84;4991938;28;20488;-86
2022/04/07 08:54:59;;;;;;;4.00;1.45;;;;;;;-145.70;100.00;64261.84;4993179;28;20030;-89
2022/04/07 08:57:26;;;;;;;3.20;1.23;;;;;;;-145.70;100.00;64261.84;4994536;28;20061;-88
2022/04/07 08:59:51;;;;;;;4.05;1.27;;;;;;;-145.70;100.00;64261.84;4993335;28;20054;-88
2022/04/07 09:02:16;;;;;;;4.45;1.95;;;;;;;-145.70;100.00;64261.84;4994426;28;20567;-88
2022/04/07 09:04:42;;;;;;;2.92;1.45;;;;;;;-145.70;100.00;64261.84;4992839;28;20484;-88
2022/04/07 09:07:08;;;;;;;2.88;1.10;;;;;;;-145.70;100.00;64261.84;4989341;28;20743;-88
2022/04/07 09:09:36;;;;;;;5.68;1.50;;;;;;;-145.70;100.00;64261.84;4991565;28;20038;-88
2022/04/07 09:12:02;;;;;;;2.95;1.17;;;;;;;-145.70;100.00;64261.84;5002608;28;20049;-88
2022/04/07 09:14:32;;;;;;;3.25;1.40;;;;;;;-145.70;100.00;64261.84;4996408;28;20046;-88
2022/04/07 09:16:58;;;;;;;4.28;1.40;;;;;;;-145.70;100.00;64261.84;4992433;28;20133;-88
2022/04/07 09:19:23;;;;;;;2.22;1.15;;;;;;;-145.70;100.00;64261.84;4990682;28;20128;-88
2022/04/07 09:22:10;;;;;;;2.00;1.17;;;;;;;-145.70;100.00;64261.84;4991350;28;20104;-88
2022/04/07 09:24:37;;;;;;;2.83;1.23;;;;;;;-145.70;100.00;64261.84;4991614;28;20136;-89
2022/04/07 09:27:08;;;;;;;5.00;1.95;;;;;;;-145.70;100.00;64261.84;4992472;28;20520;-88
2022/04/07 09:29:54;;;;;;;3.17;1.38;;;;;;;-145.70;100.00;64261.84;4990111;28;20049;-89
2022/04/07 09:32:21;;;;;;;2.72;1.30;;;;;;;-145.70;100.00;64261.84;4997432;28;20058;-87
2022/04/07 09:35:00;;;;;;;4.35;1.70;;;;;;;-145.70;100.00;64261.84;5003074;28;20441;-88
2022/04/07 09:37:27;;;;;;;;;;;;;;;-145.70;100.00;64261.84;4999267;28;20505;-88
2022/04/07 09:40:13;;;;;;;2.30;1.70;;;;;;;-145.70;100.00;64261.84;4989220;28;20352;-87
2022/04/07 09:42:42;;;;;;;4.60;1.75;;;;;;;-145.70;100.00;64261.84;4986696;28;20564;-88
2022/04/07 09:45:12;;;;;;;4.95;1.33;;;;;;;-145.70;100.00;64261.84;4990082;28;20041;-88
2022/04/07 09:47:49;;;;;;;2.83;1.38;;;;;;;-145.70;100.00;64261.84;4990815;28;20041;-88
2022/04/07 09:50:28;;;;;;;2.70;1.23;;;;;;;-145.70;100.00;64261.84;5019580;28;20061;-88
2022/04/07 09:53:04;;;;;;;4.45;1.60;;;;;;;-145.70;100.00;64261.84;4989722;28;20532;-88
2022/04/07 09:55:41;;;;;;;4.85;2.08;;;;;;;-145.70;100.00;64261.84;4993354;28;20420;-88
2022/04/07 09:58:08;;;;;;;4.10;2.10;;;;;;;-145.70;100.00;64261.84;4993180;28;20052;-88
2022/04/07 10:00:34;;;;;;;3.60;1.50;;;;;;;-145.70;100.00;64261.84;5006244;28;20053;-88
2022/04/07 10:03:02;;;;;;;2.80;1.33;;;;;;;-145.70;100.00;64261.84;5008611;28;20041;-88
2022/04/07 10:05:28;;;;;;;3.35;1.55;;;;;;;-145.70;100.00;64261.84;5011964;28;20088;-88
2022/04/07 10:07:57;;;;;;;6.80;1.80;;;;;;;-145.70;100.00;64261.84;5010663;28;20584;-87
2022/04/07 10:10:22;;;;;;;6.93;1.92;;;;;;;-145.70;100.00;64261.84;5012691;28;20117;-88
2022/04/07 10:12:49;;;;;;;5.47;1.58;;;;;;;-145.70;100.00;64261.84;5009639;28;20153;-89
2022/04/07 10:15:16;;;;;;;3.83;1.77;;;;;;;-145.70;100.00;64261.84;5009711;28;20046;-88
2022/04/07 10:17:41;;;;;;;5.88;1.50;;;;;;;-145.70;100.00;64261.84;5008023;28;20088;-88
2022/04/07 10:20:13;;;;;;;2.85;1.40;;;;;;;-145.70;100.00;64261.84;5024547;28;20057;-89
2022/04/07 10:23:00;;;;;;;3.10;1.30;;;;;;;-145.70;100.00;64261.84;5008623;28;20583;-88
2022/04/07 10:25:27;;;;;;;5.70;1.67;;;;;;;-145.70;100.00;64261.84;5023162;28;20137;-88
2022/04/07 10:27:57;;;;;;;5.30;1.50;;;;;;;-145.70;100.00;64261.84;5007198;28;20555;-89
2022/04/07 10:30:22;;;;;;;4.50;1.33;;;;;;;-145.70;100.00;64261.84;5009684;28;20133;-88
2022/04/07 10:32:50;;;;;;;6.70;1.15;;;;;;;-145.70;100.00;64261.84;5010294;28;20038;-87
2022/04/07 10:35:29;;;;;;;3.75;1.30;;;;;;;-145.70;100.00;64261.84;5009426;28;20043;-88
2022/04/07 10:38:16;;;;;;;4.97;1.42;;;;;;;-145.70;100.00;64261.84;5012668;28;20041;-88
2022/04/07 10:40:51;;;;;;;5.93;1.17;;;;;;;-145.70;100.00;64261.84;5007194;28;20037;-88
2022/04/07 10:43:25;;;;;;;2.30;1.10;;;;;;;-145.70;100.00;64261.84;5007667;28;20381;-88
2022/04/07 10:46:05;;;;;;;4.40;1.63;;;;;;;-145.70;100.00;64261.84;5009181;28;20045;-87
2022/04/07 10:48:36;;;;;;;3.78;1.20;;;;;;;-145.70;100.00;64261.84;5025819;28;20508;-88
2022/04/07 10:51:05;;;;;;;3.55;1.05;;;;;;;-145.70;100.00;64261.84;5007370;28;20576;-87
2022/04/07 10:53:35;;;;;;;4.85;1.33;;;;;;;-145.70;100.00;64261.84;5002320;28;20079;-88
2022/04/07 10:56:24;;;;;;;5.53;1.40;;;;;;;-145.70;100.00;64261.84;5009844;28;20049;-88
2022/04/07 10:58:54;;;;;;;6.03;1.15;;;;;;;-145.70;100.00;64261.84;4987549;28;20068;-88
2022/04/07 11:01:28;;;;;;;4.95;1.23;;;;;;;-145.70;100.00;64261.84;5008079;28;20078;-86
2022/04/07 11:04:16;;;;;;;4.93;1.73;;;;;;;-145.70;100.00;64261.84;5010002;28;20129;-86
2022/04/07 11:07:19;;;;;;;4.38;1.20;;;;;;;-145.70;100.00;64261.84;4991057;28;20181;-86
2022/04/07 11:09:44;;;;;;;3.45;1.15;;;;;;;-145.70;100.00;64261.84;4993443;28;20433;-87